createdAt,value
2023-04-24T00:00:41.977Z,18.12
2023-04-24T00:03:11.200Z,18.11
2023-04-24T00:05:41.406Z,18.06
2023-04-24T00:08:09.592Z,18.07
2023-04-24T00:10:38.610Z,18.03
2023-04-24T00:13:09.191Z,18.03
2023-04-24T00:15:37.668Z,18.02
2023-04-24T00:18:05.936Z,17.99
2023-04-24T00:20:36.830Z,17.99
2023-04-24T00:23:05.090Z,17.96
2023-04-24T00:25:32.914Z,17.98
2023-04-24T00:28:03.336Z,17.94
2023-04-24T00:30:31.724Z,18.05
2023-04-24T00:33:00.179Z,18.08
2023-04-24T00:35:30.079Z,18.07
2023-04-24T00:37:58.363Z,18.10
2023-04-24T00:40:26.319Z,18.10
2023-04-24T00:42:55.472Z,18.10
2023-04-24T00:45:24.287Z,18.06
2023-04-24T00:47:54.947Z,18.10
2023-04-24T00:50:25.069Z,18.10
2023-04-24T00:52:54.325Z,18.09
2023-04-24T00:55:22.539Z,18.10
2023-04-24T00:57:51.887Z,18.08
2023-04-24T01:00:22.021Z,18.08
2023-04-24T01:02:53.429Z,18.06
2023-04-24T01:05:21.715Z,18.08
2023-04-24T01:07:51.583Z,18.07
2023-04-24T01:10:21.658Z,18.09
2023-04-24T01:12:49.735Z,18.09
2023-04-24T01:15:17.568Z,18.06
2023-04-24T01:17:49.227Z,18.06
2023-04-24T01:20:18.412Z,18.03
2023-04-24T01:22:46.342Z,18.04
2023-04-24T01:25:14.124Z,18.04
2023-04-24T01:27:42.166Z,17.96
2023-04-24T01:30:13.294Z,18.02
2023-04-24T01:32:45.315Z,17.99
2023-04-24T01:35:14.408Z,17.94
2023-04-24T01:37:42.558Z,17.96
2023-04-24T01:40:12.843Z,17.97
2023-04-24T01:42:43.096Z,17.97
2023-04-24T01:45:13.957Z,17.92
2023-04-24T01:47:43.401Z,17.95
2023-04-24T01:50:11.893Z,17.96
2023-04-24T01:52:40.960Z,17.97
2023-04-24T01:55:13.787Z,17.96
2023-04-24T01:57:42.151Z,17.94
2023-04-24T02:00:12.558Z,17.95
2023-04-24T02:02:46.498Z,17.93
2023-04-24T02:05:16.510Z,17.87
2023-04-24T02:07:45.684Z,17.83
2023-04-24T02:10:13.739Z,17.77
2023-04-24T02:12:45.382Z,17.73
2023-04-24T02:15:13.492Z,17.69
2023-04-24T02:17:41.720Z,17.65
2023-04-24T02:20:11.218Z,17.57
2023-04-24T02:22:40.269Z,17.55
2023-04-24T02:25:09.697Z,17.51
2023-04-24T02:27:38.601Z,17.47
2023-04-24T02:30:09.897Z,17.45
2023-04-24T02:32:38.294Z,17.40
2023-04-24T02:35:07.017Z,17.37
2023-04-24T02:37:36.726Z,17.31
2023-04-24T02:40:09.760Z,17.33
2023-04-24T02:42:37.894Z,17.31
2023-04-24T02:45:08.202Z,17.30
2023-04-24T02:47:36.405Z,17.25
2023-04-24T02:50:05.773Z,17.31
2023-04-24T02:52:34.266Z,17.26
2023-04-24T02:55:02.838Z,17.23
2023-04-24T02:57:33.548Z,17.32
2023-04-24T03:00:04.437Z,17.30
2023-04-24T03:02:33.292Z,17.32
2023-04-24T03:05:01.313Z,17.35
2023-04-24T03:07:29.794Z,17.35
2023-04-24T03:09:59.460Z,17.38
2023-04-24T03:12:28.504Z,17.35
2023-04-24T03:14:57.666Z,17.35
2023-04-24T03:17:25.617Z,17.30
2023-04-24T03:19:53.527Z,17.20
2023-04-24T03:22:24.098Z,17.07
2023-04-24T03:24:56.492Z,16.85
2023-04-24T03:27:25.816Z,16.69
2023-04-24T03:30:02.258Z,16.49
2023-04-24T03:32:42.445Z,16.34
2023-04-24T03:35:14.859Z,16.16
2023-04-24T03:37:44.803Z,16.16
2023-04-24T03:40:42.345Z,16.09
2023-04-24T03:43:28.629Z,16.09
2023-04-24T03:46:00.642Z,16.07
2023-04-24T03:48:29.593Z,16.07
2023-04-24T03:50:59.765Z,16.11
2023-04-24T03:53:27.752Z,16.11
2023-04-24T03:55:58.421Z,16.11
2023-04-24T03:58:27.099Z,16.15
2023-04-24T04:00:59.416Z,16.10
2023-04-24T04:03:48.818Z,16.10
2023-04-24T04:06:22.550Z,16.04
2023-04-24T04:08:54.428Z,16.02
2023-04-24T04:11:22.976Z,15.97
2023-04-24T04:13:52.191Z,15.91
2023-04-24T04:16:24.533Z,15.91
2023-04-24T04:18:57.315Z,15.83
2023-04-24T04:21:29.116Z,15.77
2023-04-24T04:24:08.667Z,15.69
2023-04-24T04:26:41.935Z,15.67
2023-04-24T04:29:13.041Z,15.64
2023-04-24T04:31:45.481Z,15.60
2023-04-24T04:34:15.848Z,15.56
2023-04-24T04:36:44.671Z,15.53
2023-04-24T04:39:42.993Z,15.49
2023-04-24T04:42:15.030Z,15.46
2023-04-24T04:44:47.628Z,15.41
2023-04-24T04:47:24.880Z,15.37
2023-04-24T04:49:56.507Z,15.33
2023-04-24T04:52:28.596Z,15.27
2023-04-24T04:55:10.541Z,15.25
2023-04-24T04:58:12.469Z,15.20
2023-04-24T05:00:40.795Z,15.21
2023-04-24T05:03:21.671Z,15.20
2023-04-24T05:05:59.863Z,15.21
2023-04-24T05:08:29.820Z,15.25
2023-04-24T05:10:58.498Z,15.28
2023-04-24T05:13:38.991Z,15.27
2023-04-24T05:16:13.934Z,15.29
2023-04-24T05:18:46.507Z,15.14
2023-04-24T05:21:17.612Z,15.31
2023-04-24T05:23:49.743Z,15.37
2023-04-24T05:26:29.271Z,15.41
2023-04-24T05:29:01.214Z,15.47
2023-04-24T05:31:31.580Z,15.52
2023-04-24T05:34:02.160Z,15.55
2023-04-24T05:36:33.615Z,15.60
2023-04-24T05:39:08.194Z,15.65
2023-04-24T05:41:36.976Z,15.72
2023-04-24T05:44:05.075Z,15.76
2023-04-24T05:46:34.461Z,15.81
2023-04-24T05:49:04.526Z,15.80
2023-04-24T05:51:37.296Z,15.82
2023-04-24T05:54:07.320Z,15.86
2023-04-24T05:56:35.850Z,15.92
2023-04-24T05:59:08.684Z,15.91
2023-04-24T06:01:38.577Z,15.95
2023-04-24T06:04:16.191Z,16.05
2023-04-24T06:06:46.344Z,16.08
2023-04-24T06:09:23.268Z,16.16
2023-04-24T06:11:56.934Z,16.14
2023-04-24T06:14:32.526Z,16.11
2023-04-24T06:17:20.010Z,16.09
2023-04-24T06:19:49.164Z,16.08
2023-04-24T06:22:18.467Z,16.05
2023-04-24T06:24:46.423Z,16.07
2023-04-24T06:27:19.372Z,16.09
2023-04-24T06:29:54.442Z,16.10
2023-04-24T06:32:25.495Z,16.13
2023-04-24T06:35:00.648Z,16.14
2023-04-24T06:37:30.895Z,16.21
2023-04-24T06:40:01.276Z,16.27
2023-04-24T06:42:32.511Z,16.30
2023-04-24T06:45:01.052Z,16.35
2023-04-24T06:47:31.975Z,16.43
2023-04-24T06:50:13.624Z,16.45
2023-04-24T06:52:45.327Z,16.46
2023-04-24T06:55:16.796Z,16.55
2023-04-24T06:57:45.924Z,16.41
2023-04-24T07:00:15.030Z,16.58
2023-04-24T07:02:43.690Z,16.82
2023-04-24T07:05:18.436Z,17.01
2023-04-24T07:07:49.419Z,17.16
2023-04-24T07:10:18.148Z,17.28
2023-04-24T07:12:46.550Z,17.34
2023-04-24T07:15:17.373Z,17.38
2023-04-24T07:17:47.581Z,17.48
2023-04-24T07:20:17.407Z,17.49
2023-04-24T07:22:50.180Z,17.54
2023-04-24T07:25:21.444Z,17.57
2023-04-24T07:27:52.398Z,17.52
2023-04-24T07:30:20.493Z,17.52
2023-04-24T07:32:50.235Z,17.49
2023-04-24T07:35:18.672Z,17.43
2023-04-24T07:37:49.542Z,17.48
2023-04-24T07:40:20.634Z,17.49
2023-04-24T07:42:50.425Z,17.48
2023-04-24T07:45:19.010Z,17.46
2023-04-24T07:47:48.856Z,17.35
2023-04-24T07:50:17.534Z,17.28
2023-04-24T07:52:45.731Z,17.21
2023-04-24T07:55:14.342Z,17.25
2023-04-24T07:57:44.284Z,17.22
2023-04-24T08:00:16.792Z,17.20
2023-04-24T08:02:45.688Z,17.23
2023-04-24T08:05:15.625Z,17.28
2023-04-24T08:07:43.921Z,17.28
2023-04-24T08:10:12.675Z,17.27
2023-04-24T08:12:41.735Z,17.25
2023-04-24T08:15:12.751Z,17.31
2023-04-24T08:17:41.707Z,17.39
2023-04-24T08:20:15.072Z,17.48
2023-04-24T08:22:50.804Z,17.54
2023-04-24T08:25:26.774Z,17.55
2023-04-24T08:27:56.773Z,17.64
2023-04-24T08:30:25.068Z,17.72
2023-04-24T08:32:55.190Z,17.83
2023-04-24T08:35:27.604Z,17.86
2023-04-24T08:37:58.851Z,17.93
2023-04-24T08:40:37.152Z,18.03
2023-04-24T08:43:05.628Z,18.11
2023-04-24T08:45:35.751Z,18.14
2023-04-24T08:48:07.971Z,18.11
2023-04-24T08:50:42.745Z,18.11
2023-04-24T08:53:11.154Z,18.14
2023-04-24T08:55:44.967Z,18.23
2023-04-24T08:58:15.621Z,18.37
2023-04-24T09:00:48.169Z,18.43
2023-04-24T09:03:18.938Z,18.50
2023-04-24T09:05:51.752Z,18.50
2023-04-24T09:08:26.298Z,18.46
2023-04-24T09:10:54.807Z,18.35
2023-04-24T09:13:26.212Z,18.29
2023-04-24T09:15:58.711Z,18.22
2023-04-24T09:18:33.054Z,18.14
2023-04-24T09:21:08.505Z,18.12
2023-04-24T09:23:46.428Z,18.08
2023-04-24T09:26:15.263Z,18.05
2023-04-24T09:28:46.600Z,18.00
2023-04-24T09:31:23.182Z,18.02
2023-04-24T09:34:11.646Z,18.00
2023-04-24T09:36:44.848Z,17.94
2023-04-24T09:39:17.977Z,17.89
2023-04-24T09:42:00.545Z,17.85
2023-04-24T09:44:29.811Z,17.74
2023-04-24T09:47:01.626Z,17.70
2023-04-24T09:49:37.321Z,17.66
2023-04-24T09:52:10.027Z,17.64
2023-04-24T09:54:40.216Z,17.62
2023-04-24T09:57:12.339Z,17.65
2023-04-24T10:00:03.770Z,17.47
2023-04-24T10:02:46.523Z,17.67
2023-04-24T10:05:16.917Z,17.86
2023-04-24T10:07:49.006Z,18.04
2023-04-24T10:10:21.716Z,18.16
2023-04-24T10:12:54.086Z,18.24
2023-04-24T10:15:24.451Z,18.37
2023-04-24T10:17:56.184Z,18.45
2023-04-24T10:20:28.358Z,18.49
2023-04-24T10:22:59.109Z,18.49
2023-04-24T10:25:36.231Z,18.44
2023-04-24T10:28:11.343Z,18.30
2023-04-24T10:30:43.762Z,18.18
2023-04-24T10:33:16.722Z,18.09
2023-04-24T10:35:52.165Z,17.94
2023-04-24T10:38:31.079Z,17.81
2023-04-24T10:41:21.536Z,17.63
2023-04-24T10:44:05.594Z,17.39
2023-04-24T10:46:35.203Z,17.31
2023-04-24T10:49:10.043Z,17.24
2023-04-24T10:51:56.739Z,17.24
2023-04-24T10:54:25.496Z,17.00
2023-04-24T10:57:14.656Z,17.13
2023-04-24T10:59:42.429Z,17.15
2023-04-24T11:02:13.659Z,17.23
2023-04-24T11:04:42.261Z,17.37
2023-04-24T11:07:15.440Z,17.57
2023-04-24T11:09:45.492Z,17.66
2023-04-24T11:12:15.077Z,17.75
2023-04-24T11:14:58.869Z,17.92
2023-04-24T11:17:43.306Z,18.01
2023-04-24T11:20:27.415Z,18.08
2023-04-24T11:23:05.146Z,18.11
2023-04-24T11:25:36.465Z,18.13
2023-04-24T11:28:08.726Z,18.08
2023-04-24T11:30:40.799Z,18.00
2023-04-24T11:33:22.374Z,17.93
2023-04-24T11:35:52.339Z,17.77
2023-04-24T11:38:24.494Z,17.67
2023-04-24T11:40:54.902Z,17.58
2023-04-24T11:43:24.599Z,17.47
2023-04-24T11:45:52.463Z,17.44
2023-04-24T11:48:23.708Z,17.44
2023-04-24T11:50:52.553Z,17.46
2023-04-24T11:53:22.884Z,17.58
2023-04-24T11:55:51.555Z,17.63
2023-04-24T11:58:22.939Z,17.67
2023-04-24T12:00:57.264Z,17.52
2023-04-24T12:03:27.000Z,17.58
2023-04-24T12:06:08.717Z,17.76
2023-04-24T12:08:38.426Z,17.89
2023-04-24T12:11:08.597Z,18.07
2023-04-24T12:13:39.923Z,18.19
2023-04-24T12:16:10.346Z,18.45
2023-04-24T12:18:46.475Z,18.64
2023-04-24T12:21:27.632Z,18.71
2023-04-24T12:23:58.107Z,18.76
2023-04-24T12:26:26.762Z,18.87
2023-04-24T12:28:55.284Z,18.95
2023-04-24T12:31:23.536Z,18.94
2023-04-24T12:33:53.762Z,19.05
2023-04-24T12:36:23.128Z,19.07
2023-04-24T12:38:56.845Z,18.99
2023-04-24T12:41:24.675Z,18.98
2023-04-24T12:43:54.900Z,18.99
2023-04-24T12:46:22.976Z,19.04
2023-04-24T12:48:52.534Z,19.07
2023-04-24T12:51:20.304Z,19.08
2023-04-24T12:53:49.994Z,19.17
2023-04-24T12:56:20.799Z,19.20
2023-04-24T12:58:48.586Z,19.28
2023-04-24T13:01:16.318Z,19.38
2023-04-24T13:03:46.389Z,19.45
2023-04-24T13:06:15.405Z,19.45
2023-04-24T13:08:43.361Z,19.48
2023-04-24T13:11:11.090Z,19.48
2023-04-24T13:13:38.975Z,19.47
2023-04-24T13:16:07.028Z,19.52
2023-04-24T13:18:34.767Z,19.56
2023-04-24T13:21:02.511Z,19.64
2023-04-24T13:23:30.269Z,19.68
2023-04-24T13:25:58.639Z,19.75
2023-04-24T13:28:27.798Z,19.78
2023-04-24T13:30:55.764Z,19.76
2023-04-24T13:33:25.120Z,19.71
2023-04-24T13:35:54.855Z,19.75
2023-04-24T13:38:23.605Z,19.73
2023-04-24T13:40:52.149Z,19.68
2023-04-24T13:43:19.817Z,19.63
2023-04-24T13:45:47.599Z,19.63
2023-04-24T13:48:24.815Z,19.59
2023-04-24T13:50:52.528Z,19.57
2023-04-24T13:53:23.765Z,19.66
2023-04-24T13:55:51.620Z,19.62
2023-04-24T13:58:19.312Z,19.69
2023-04-24T14:00:52.438Z,19.70
2023-04-24T14:03:22.424Z,19.72
2023-04-24T14:05:51.450Z,19.76
2023-04-24T14:08:19.179Z,19.79
2023-04-24T14:10:46.972Z,19.85
2023-04-24T14:13:15.507Z,19.88
2023-04-24T14:15:43.454Z,19.83
2023-04-24T14:18:11.337Z,19.86
2023-04-24T14:20:39.082Z,19.91
2023-04-24T14:23:06.748Z,19.96
2023-04-24T14:25:40.761Z,19.95
2023-04-24T14:28:08.583Z,19.98
2023-04-24T14:30:38.420Z,20.00
2023-04-24T14:33:06.344Z,20.02
2023-04-24T14:35:35.187Z,19.98
2023-04-24T14:38:04.445Z,20.03
2023-04-24T14:40:56.108Z,20.10
2023-04-24T14:43:22.725Z,20.16
2023-04-24T14:45:50.871Z,20.20
2023-04-24T14:48:21.939Z,20.24
2023-04-24T14:50:49.711Z,20.23
2023-04-24T14:53:21.134Z,20.14
2023-04-24T14:55:50.401Z,20.02
2023-04-24T14:58:18.222Z,19.93
2023-04-24T15:00:50.587Z,19.89
2023-04-24T15:03:20.194Z,19.84
2023-04-24T15:05:48.468Z,19.83
2023-04-24T15:08:16.356Z,19.86
2023-04-24T15:10:44.315Z,19.81
2023-04-24T15:13:15.598Z,19.76
2023-04-24T15:15:47.235Z,19.69
2023-04-24T15:18:15.084Z,19.68
2023-04-24T15:20:42.831Z,19.66
2023-04-24T15:23:12.354Z,19.69
2023-04-24T15:25:41.754Z,19.67
2023-04-24T15:28:10.368Z,19.67
2023-04-24T15:30:38.103Z,19.61
2023-04-24T15:33:07.366Z,19.58
2023-04-24T15:35:35.177Z,19.57
2023-04-24T15:38:09.397Z,19.51
2023-04-24T15:40:38.396Z,19.48
2023-04-24T15:43:06.154Z,19.43
2023-04-24T15:45:35.380Z,19.30
2023-04-24T15:48:03.314Z,19.16
2023-04-24T15:50:33.202Z,19.02
2023-04-24T15:53:01.066Z,18.93
2023-04-24T15:55:30.832Z,18.87
2023-04-24T15:58:00.047Z,18.84
2023-04-24T16:00:34.429Z,18.75
2023-04-24T16:03:09.373Z,18.64
2023-04-24T16:05:37.869Z,18.59
2023-04-24T16:08:08.255Z,18.55
2023-04-24T16:10:37.952Z,18.57
2023-04-24T16:13:06.359Z,18.56
2023-04-24T16:15:36.643Z,18.61
2023-04-24T16:18:04.827Z,18.61
2023-04-24T16:20:34.032Z,18.67
2023-04-24T16:23:03.517Z,18.64
2023-04-24T16:25:32.701Z,18.65
2023-04-24T16:28:00.672Z,18.67
2023-04-24T16:30:28.750Z,18.69
2023-04-24T16:32:57.857Z,18.72
2023-04-24T16:35:25.511Z,18.73
2023-04-24T16:37:53.356Z,18.75
2023-04-24T16:40:22.116Z,18.76
2023-04-24T16:42:50.156Z,18.70
2023-04-24T16:45:17.999Z,18.72
2023-04-24T16:47:45.783Z,18.70
2023-04-24T16:50:13.613Z,18.71
2023-04-24T16:52:42.005Z,18.64
2023-04-24T16:55:10.682Z,18.58
2023-04-24T16:57:42.075Z,18.54
2023-04-24T17:00:12.279Z,18.45
2023-04-24T17:02:42.587Z,18.39
2023-04-24T17:05:12.582Z,18.31
2023-04-24T17:07:47.862Z,18.21
2023-04-24T17:10:16.035Z,18.07
2023-04-24T17:12:45.094Z,17.95
2023-04-24T17:15:12.830Z,17.85
2023-04-24T17:17:46.217Z,17.79
2023-04-24T17:20:22.084Z,17.68
2023-04-24T17:22:51.488Z,17.57
2023-04-24T17:25:19.429Z,17.54
2023-04-24T17:27:47.364Z,17.50
2023-04-24T17:30:17.981Z,17.48
2023-04-24T17:32:46.555Z,17.38
2023-04-24T17:35:14.448Z,17.39
2023-04-24T17:37:46.514Z,17.36
2023-04-24T17:40:14.761Z,17.37
2023-04-24T17:42:42.665Z,17.37
2023-04-24T17:45:11.273Z,17.38
2023-04-24T17:47:39.082Z,17.40
2023-04-24T17:50:07.295Z,17.41
2023-04-24T17:52:35.419Z,17.40
2023-04-24T17:55:04.960Z,17.36
2023-04-24T17:57:34.669Z,17.22
2023-04-24T18:00:05.553Z,17.27
2023-04-24T18:02:33.988Z,17.31
2023-04-24T18:05:02.027Z,17.38
2023-04-24T18:07:30.347Z,17.38
2023-04-24T18:09:58.181Z,17.33
2023-04-24T18:12:31.261Z,17.35
2023-04-24T18:15:12.950Z,17.32
2023-04-24T18:17:41.902Z,17.32
2023-04-24T18:20:11.381Z,17.28
2023-04-24T18:22:40.325Z,17.31
2023-04-24T18:25:09.824Z,17.23
2023-04-24T18:27:40.769Z,17.24
2023-04-24T18:30:14.246Z,17.17
2023-04-24T18:32:54.375Z,17.08
2023-04-24T18:35:24.126Z,17.00
2023-04-24T18:37:52.856Z,16.96
2023-04-24T18:40:21.020Z,16.92
2023-04-24T18:42:48.958Z,16.82
2023-04-24T18:45:23.184Z,16.81
2023-04-24T18:47:50.986Z,16.75
2023-04-24T18:50:19.397Z,16.70
2023-04-24T18:52:48.835Z,16.66
2023-04-24T18:55:16.637Z,16.67
2023-04-24T18:57:44.416Z,16.68
2023-04-24T19:00:12.835Z,16.67
2023-04-24T19:02:40.821Z,16.63
2023-04-24T19:05:10.401Z,16.73
2023-04-24T19:07:38.229Z,16.71
2023-04-24T19:10:08.884Z,16.80
2023-04-24T19:12:38.091Z,16.76
2023-04-24T19:15:12.465Z,16.79
2023-04-24T19:17:43.753Z,16.75
2023-04-24T19:20:12.087Z,16.79
2023-04-24T19:22:41.538Z,16.74
2023-04-24T19:25:09.574Z,16.74
2023-04-24T19:27:37.341Z,16.68
2023-04-24T19:30:08.418Z,16.74
2023-04-24T19:32:36.325Z,16.73
2023-04-24T19:35:04.474Z,16.75
2023-04-24T19:37:37.416Z,16.76
2023-04-24T19:40:06.253Z,16.77
2023-04-24T19:42:43.358Z,16.79
2023-04-24T19:45:14.763Z,16.78
2023-04-24T19:47:43.138Z,16.75
2023-04-24T19:50:16.826Z,16.75
2023-04-24T19:52:44.536Z,16.79
2023-04-24T19:55:13.932Z,16.76
2023-04-24T19:57:42.453Z,16.75
2023-04-24T20:00:12.304Z,16.71
2023-04-24T20:02:41.962Z,16.68
2023-04-24T20:05:10.139Z,16.70
2023-04-24T20:07:39.415Z,16.60
2023-04-24T20:10:07.960Z,16.58
2023-04-24T20:12:36.672Z,16.44
2023-04-24T20:15:06.475Z,16.43
2023-04-24T20:17:37.235Z,16.35
2023-04-24T20:20:06.196Z,16.29
2023-04-24T20:22:38.681Z,16.21
2023-04-24T20:25:12.905Z,16.15
2023-04-24T20:27:41.252Z,16.06
2023-04-24T20:30:12.901Z,16.05
2023-04-24T20:32:45.052Z,15.98
2023-04-24T20:35:12.817Z,16.00
2023-04-24T20:37:41.351Z,16.00
2023-04-24T20:40:09.891Z,16.00
2023-04-24T20:42:38.369Z,15.99
2023-04-24T20:45:06.977Z,16.01
2023-04-24T20:47:35.592Z,16.03
2023-04-24T20:50:05.357Z,16.06
2023-04-24T20:52:37.583Z,16.09
2023-04-24T20:55:06.898Z,16.12
2023-04-24T20:57:35.422Z,16.13
2023-04-24T21:00:08.032Z,16.18
2023-04-24T21:02:36.021Z,16.17
2023-04-24T21:05:04.415Z,16.22
2023-04-24T21:07:32.330Z,16.21
2023-04-24T21:10:00.127Z,16.24
2023-04-24T21:12:27.889Z,16.24
2023-04-24T21:14:55.610Z,16.23
2023-04-24T21:17:23.413Z,16.28
2023-04-24T21:19:51.308Z,16.31
2023-04-24T21:22:19.041Z,16.31
2023-04-24T21:24:46.693Z,16.33
2023-04-24T21:27:14.600Z,16.32
2023-04-24T21:29:42.514Z,16.33
2023-04-24T21:32:10.352Z,16.36
2023-04-24T21:34:38.212Z,16.37
2023-04-24T21:37:06.492Z,16.35
2023-04-24T21:39:34.198Z,16.37
2023-04-24T21:42:01.897Z,16.36
2023-04-24T21:44:29.903Z,16.37
2023-04-24T21:46:57.713Z,16.36
2023-04-24T21:49:25.422Z,16.35
2023-04-24T21:51:53.313Z,16.32
2023-04-24T21:54:21.237Z,16.30
2023-04-24T21:56:49.093Z,16.25
2023-04-24T21:59:17.577Z,16.22
2023-04-24T22:01:45.435Z,16.19
2023-04-24T22:04:13.599Z,16.18
2023-04-24T22:06:42.148Z,16.16
2023-04-24T22:09:10.917Z,16.11
2023-04-24T22:11:38.830Z,16.10
2023-04-24T22:14:07.076Z,16.05
2023-04-24T22:16:35.247Z,16.04
2023-04-24T22:19:03.200Z,15.97
2023-04-24T22:21:31.511Z,15.97
2023-04-24T22:23:59.421Z,15.92
2023-04-24T22:26:27.294Z,15.94
2023-04-24T22:28:55.096Z,15.93
2023-04-24T22:31:23.481Z,15.91
2023-04-24T22:33:51.689Z,15.88
2023-04-24T22:36:19.661Z,15.81
2023-04-24T22:38:47.428Z,15.81
2023-04-24T22:41:15.251Z,15.78
2023-04-24T22:43:43.043Z,15.71
2023-04-24T22:46:10.757Z,15.70
2023-04-24T22:48:38.809Z,15.73
2023-04-24T22:51:06.754Z,15.72
2023-04-24T22:53:36.140Z,15.68
2023-04-24T22:56:04.139Z,15.66
2023-04-24T22:58:32.562Z,15.67
2023-04-24T23:01:00.389Z,15.68
2023-04-24T23:03:28.327Z,15.66
2023-04-24T23:05:56.398Z,15.62
2023-04-24T23:08:24.152Z,15.59
2023-04-24T23:10:51.960Z,15.56
2023-04-24T23:13:19.830Z,15.50
2023-04-24T23:15:47.601Z,15.50
2023-04-24T23:18:15.463Z,15.48
2023-04-24T23:20:43.200Z,15.48
2023-04-24T23:23:11.061Z,15.44
2023-04-24T23:25:39.319Z,15.41
2023-04-24T23:28:07.016Z,15.43
2023-04-24T23:30:34.764Z,15.42
2023-04-24T23:33:02.596Z,15.42
2023-04-24T23:35:30.926Z,15.43
2023-04-24T23:37:58.684Z,15.41
2023-04-24T23:40:27.000Z,15.41
2023-04-24T23:43:06.226Z,15.41
2023-04-24T23:45:35.711Z,15.40
2023-04-24T23:48:04.598Z,15.41
2023-04-24T23:50:32.578Z,15.41
2023-04-24T23:53:00.602Z,15.36
2023-04-24T23:55:28.425Z,15.43
2023-04-24T23:57:56.333Z,15.42
